DRRN/NIM METAR and TAF weather

Enter ICAO airport designator
Station Type Date Time Source
DRRN METAR 2018/01/16 08:00 UTC NOAA

DRRN 160800Z 07007KT 1200 R09/1200 DU NSC 20/M03 Q1015 BECMG 2000


Station Type Date Time Source
DRRN Decoded METAR 2018/01/16 08:00 UTC NOAA

Niamey-Aero, Niger (DRRN) 13-29N 002-10E 227M
Jan 16, 2018 - 03:00 AM EST / 2018.01.16 0800 UTC
Wind: from the ENE (070 degrees) at 8 MPH (7 KT):0
Visibility: less than 1 mile:0
Weather: widespread dust
Temperature: 68 F (20 C)
Dew Point: 26 F (-3 C)
Relative Humidity: 20%
Pressure (altimeter): 29.97 in. Hg (1015 hPa)
ob: DRRN 160800Z 07007KT 1200 R09/1200 DU NSC 20/M03 Q1015 BECMG 2000
cycle: 8

Station Type Date Time Source
DRRN TAF 2018/01/16 06:21 UTC NOAA

TAF DRRN 160500Z 1606/1712 08008KT 3000 DU NSC PROB40
TEMPO 1606/1612 08018KT 0800 BLDU


Example: see airport list